Puvirnituq Airport
CYPX : rendu visible

Aérodrome :











RETROUVEZ-NOUS SUR...

 
LOGIN :

S'inscrire | Disclaimer

   EN    FR    IT 

 









Légende :    VFR   VFR Marginal   IFR   IFR Intensif   IFR Très Intensif
Visi : 
Plafond : 
>= 8 km
>= 3000ft
5 à 8 km
1000 à 3000 ft
1500m à 5 km
500 à 1000 ft
800 à 1500m
200 à 500 ft
< 800m
< 200 ft
Symboles :   Orages  Brouillard  Fortes neiges  Fortes précipitations  Vent > 20 kt






- Altitude de l'aérodrome : 74 ft
- Code IATA : YPX


CYPX - Puvirnituq

DERNIER METAR :
  • 241500Z AUTO 05009KT 9SM CLR M34/M38 A3019 RMK SLP228

METARs EXPIRÉS :
  • 241400Z AUTO 06006KT 9SM FEW250 M35/M39 A3019 RMK SLP229
  • 241300Z AUTO 06007KT 9SM CLR M35/M39 A3018 RMK SLP226

TAF AMD TAF CYPX
Valide du 24 à 12h jusqu'au 25 à 00h UTC


241205Z 2412/2424 06007KT 6SM BR SCT008
TEMPO 2412/2416 1SM IC BR OVC002
FM241600 08008KT P6SM FEW008
TEMPO 2416/2424 2SM IC BR OVC004 RMK FCST BASED ON AUTO OBS. NXT FCST BY 241800Z



MET'MAP, la Météo Aéronautique d'un coup d'oeil ! - Copyright ORBIFLY Décembre 2007 - Disclaimer

ORBIFLY MET'MAP TEAM :

Programmation & Développement : Alexandra Zaïnal
Sur une idée originale de : Baudouin d'Aumeries
Assistance à la programmation : Marc-Olivier Méhu
Soutien technique & logistique : Manuel Goepfert

Contact : metmap@orbifly.com




SOURCES & CREDITS :

   NOAA       Earth
Advisory